sensor_id;sensor_type;location;lat;lon;timestamp;P1;durP1;ratioP1;P2;durP2;ratioP2
45784;SDS011;31489;51.404;5.474;2023-06-26T00:00:14;7.18;;;5.70;;
45784;SDS011;31489;51.404;5.474;2023-06-26T00:02:40;6.25;;;5.60;;
45784;SDS011;31489;51.404;5.474;2023-06-26T00:05:06;6.57;;;5.43;;
45784;SDS011;31489;51.404;5.474;2023-06-26T00:07:31;7.05;;;6.00;;
45784;SDS011;31489;51.404;5.474;2023-06-26T00:09:59;6.05;;;5.45;;
45784;SDS011;31489;51.404;5.474;2023-06-26T00:12:25;6.22;;;5.68;;
45784;SDS011;31489;51.404;5.474;2023-06-26T00:14:51;7.25;;;4.90;;
45784;SDS011;31489;51.404;5.474;2023-06-26T00:17:17;5.45;;;5.00;;
45784;SDS011;31489;51.404;5.474;2023-06-26T00:19:43;6.50;;;5.57;;
45784;SDS011;31489;51.404;5.474;2023-06-26T00:22:09;7.38;;;5.47;;
45784;SDS011;31489;51.404;5.474;2023-06-26T00:24:34;6.75;;;5.60;;
45784;SDS011;31489;51.404;5.474;2023-06-26T00:27:00;10.50;;;5.32;;
45784;SDS011;31489;51.404;5.474;2023-06-26T00:29:26;7.85;;;4.97;;
45784;SDS011;31489;51.404;5.474;2023-06-26T00:31:51;5.47;;;4.97;;
45784;SDS011;31489;51.404;5.474;2023-06-26T00:34:17;5.80;;;5.20;;
45784;SDS011;31489;51.404;5.474;2023-06-26T00:36:42;5.43;;;4.93;;
45784;SDS011;31489;51.404;5.474;2023-06-26T00:39:09;5.80;;;5.20;;
45784;SDS011;31489;51.404;5.474;2023-06-26T00:41:36;5.78;;;5.15;;
45784;SDS011;31489;51.404;5.474;2023-06-26T00:44:03;6.22;;;5.22;;
45784;SDS011;31489;51.404;5.474;2023-06-26T00:46:29;7.38;;;5.15;;
45784;SDS011;31489;51.404;5.474;2023-06-26T00:48:55;6.78;;;5.45;;
45784;SDS011;31489;51.404;5.474;2023-06-26T00:51:24;5.75;;;5.20;;
45784;SDS011;31489;51.404;5.474;2023-06-26T00:53:51;6.40;;;5.22;;
45784;SDS011;31489;51.404;5.474;2023-06-26T00:56:17;6.40;;;5.65;;
45784;SDS011;31489;51.404;5.474;2023-06-26T00:58:44;6.10;;;5.50;;
45784;SDS011;31489;51.404;5.474;2023-06-26T01:01:10;6.43;;;5.05;;
45784;SDS011;31489;51.404;5.474;2023-06-26T01:03:42;6.28;;;5.65;;
45784;SDS011;31489;51.404;5.474;2023-06-26T01:06:08;6.60;;;5.55;;
45784;SDS011;31489;51.404;5.474;2023-06-26T01:08:38;6.05;;;5.30;;
45784;SDS011;31489;51.404;5.474;2023-06-26T01:11:04;7.85;;;4.97;;
45784;SDS011;31489;51.404;5.474;2023-06-26T01:13:33;5.28;;;4.78;;
45784;SDS011;31489;51.404;5.474;2023-06-26T01:16:00;5.20;;;4.70;;
45784;SDS011;31489;51.404;5.474;2023-06-26T01:18:27;6.20;;;4.70;;
45784;SDS011;31489;51.404;5.474;2023-06-26T01:20:54;5.53;;;4.70;;
45784;SDS011;31489;51.404;5.474;2023-06-26T01:23:48;8.45;;;4.82;;
45784;SDS011;31489;51.404;5.474;2023-06-26T01:26:22;4.82;;;4.20;;
45784;SDS011;31489;51.404;5.474;2023-06-26T01:28:50;7.65;;;4.50;;
45784;SDS011;31489;51.404;5.474;2023-06-26T01:31:18;4.72;;;4.20;;
45784;SDS011;31489;51.404;5.474;2023-06-26T01:33:44;5.55;;;4.30;;
45784;SDS011;31489;51.404;5.474;2023-06-26T01:36:11;4.80;;;4.25;;
45784;SDS011;31489;51.404;5.474;2023-06-26T01:38:37;4.75;;;4.25;;
45784;SDS011;31489;51.404;5.474;2023-06-26T01:41:03;5.65;;;4.20;;
45784;SDS011;31489;51.404;5.474;2023-06-26T01:45:59;5.15;;;4.28;;
45784;SDS011;31489;51.404;5.474;2023-06-26T01:48:40;4.70;;;3.75;;
45784;SDS011;31489;51.404;5.474;2023-06-26T01:51:20;5.15;;;3.92;;
45784;SDS011;31489;51.404;5.474;2023-06-26T01:53:49;7.22;;;4.15;;
45784;SDS011;31489;51.404;5.474;2023-06-26T01:56:20;4.05;;;3.65;;
45784;SDS011;31489;51.404;5.474;2023-06-26T01:58:48;6.15;;;4.35;;
45784;SDS011;31489;51.404;5.474;2023-06-26T02:01:19;6.20;;;4.10;;
45784;SDS011;31489;51.404;5.474;2023-06-26T02:03:45;5.57;;;4.05;;
45784;SDS011;31489;51.404;5.474;2023-06-26T02:06:11;5.65;;;4.38;;
45784;SDS011;31489;51.404;5.474;2023-06-26T02:08:36;7.47;;;4.13;;
45784;SDS011;31489;51.404;5.474;2023-06-26T02:11:02;4.75;;;4.10;;
45784;SDS011;31489;51.404;5.474;2023-06-26T02:13:28;10.50;;;4.28;;
45784;SDS011;31489;51.404;5.474;2023-06-26T02:15:54;6.53;;;4.00;;
45784;SDS011;31489;51.404;5.474;2023-06-26T02:18:19;4.45;;;3.88;;
45784;SDS011;31489;51.404;5.474;2023-06-26T02:20:47;5.00;;;3.70;;
45784;SDS011;31489;51.404;5.474;2023-06-26T02:23:13;5.50;;;3.60;;
45784;SDS011;31489;51.404;5.474;2023-06-26T02:25:39;7.00;;;4.10;;
45784;SDS011;31489;51.404;5.474;2023-06-26T02:28:04;5.07;;;3.92;;
45784;SDS011;31489;51.404;5.474;2023-06-26T02:30:30;6.03;;;3.58;;
45784;SDS011;31489;51.404;5.474;2023-06-26T02:32:56;8.68;;;3.38;;
45784;SDS011;31489;51.404;5.474;2023-06-26T02:35:21;5.25;;;4.03;;
45784;SDS011;31489;51.404;5.474;2023-06-26T02:37:47;5.95;;;4.30;;
45784;SDS011;31489;51.404;5.474;2023-06-26T02:40:12;5.32;;;4.00;;
45784;SDS011;31489;51.404;5.474;2023-06-26T02:42:38;7.65;;;4.20;;
45784;SDS011;31489;51.404;5.474;2023-06-26T02:45:04;6.30;;;4.05;;
45784;SDS011;31489;51.404;5.474;2023-06-26T02:47:29;7.70;;;4.05;;
45784;SDS011;31489;51.404;5.474;2023-06-26T02:49:55;3.97;;;3.45;;
45784;SDS011;31489;51.404;5.474;2023-06-26T02:52:21;7.13;;;3.70;;
45784;SDS011;31489;51.404;5.474;2023-06-26T02:54:46;7.43;;;3.40;;
45784;SDS011;31489;51.404;5.474;2023-06-26T02:57:12;4.75;;;2.97;;
45784;SDS011;31489;51.404;5.474;2023-06-26T02:59:39;8.52;;;3.50;;
45784;SDS011;31489;51.404;5.474;2023-06-26T03:02:05;7.78;;;3.55;;
45784;SDS011;31489;51.404;5.474;2023-06-26T03:04:31;5.25;;;3.10;;
45784;SDS011;31489;51.404;5.474;2023-06-26T03:06:56;8.00;;;3.63;;
45784;SDS011;31489;51.404;5.474;2023-06-26T03:09:22;3.38;;;3.08;;
45784;SDS011;31489;51.404;5.474;2023-06-26T03:11:47;8.10;;;3.40;;
45784;SDS011;31489;51.404;5.474;2023-06-26T03:14:13;5.43;;;3.53;;
45784;SDS011;31489;51.404;5.474;2023-06-26T03:16:39;5.20;;;3.28;;
45784;SDS011;31489;51.404;5.474;2023-06-26T03:19:05;6.47;;;3.67;;
45784;SDS011;31489;51.404;5.474;2023-06-26T03:21:32;5.35;;;3.75;;
45784;SDS011;31489;51.404;5.474;2023-06-26T03:23:57;6.45;;;3.53;;
45784;SDS011;31489;51.404;5.474;2023-06-26T03:26:23;6.90;;;3.45;;
45784;SDS011;31489;51.404;5.474;2023-06-26T03:28:52;8.40;;;3.90;;
45784;SDS011;31489;51.404;5.474;2023-06-26T03:31:18;7.13;;;4.20;;
45784;SDS011;31489;51.404;5.474;2023-06-26T03:33:45;6.57;;;3.80;;
45784;SDS011;31489;51.404;5.474;2023-06-26T03:36:10;8.10;;;3.72;;
45784;SDS011;31489;51.404;5.474;2023-06-26T03:38:36;6.68;;;3.58;;
45784;SDS011;31489;51.404;5.474;2023-06-26T03:41:02;11.95;;;4.10;;
45784;SDS011;31489;51.404;5.474;2023-06-26T03:43:28;7.10;;;3.42;;
45784;SDS011;31489;51.404;5.474;2023-06-26T03:45:53;5.40;;;3.53;;
45784;SDS011;31489;51.404;5.474;2023-06-26T03:48:19;6.15;;;3.35;;
45784;SDS011;31489;51.404;5.474;2023-06-26T03:50:45;5.82;;;3.58;;
45784;SDS011;31489;51.404;5.474;2023-06-26T03:53:11;6.80;;;3.63;;
45784;SDS011;31489;51.404;5.474;2023-06-26T03:55:37;9.13;;;4.20;;
45784;SDS011;31489;51.404;5.474;2023-06-26T03:58:03;8.85;;;4.10;;
45784;SDS011;31489;51.404;5.474;2023-06-26T04:00:29;6.28;;;3.63;;
45784;SDS011;31489;51.404;5.474;2023-06-26T04:02:55;6.07;;;3.78;;
45784;SDS011;31489;51.404;5.474;2023-06-26T04:05:22;7.78;;;4.10;;
45784;SDS011;31489;51.404;5.474;2023-06-26T04:07:51;7.90;;;3.75;;
45784;SDS011;31489;51.404;5.474;2023-06-26T04:10:17;9.07;;;3.67;;
45784;SDS011;31489;51.404;5.474;2023-06-26T04:12:43;6.35;;;3.55;;
45784;SDS011;31489;51.404;5.474;2023-06-26T04:15:09;9.40;;;4.50;;
45784;SDS011;31489;51.404;5.474;2023-06-26T04:17:35;7.43;;;3.83;;
45784;SDS011;31489;51.404;5.474;2023-06-26T04:20:00;9.38;;;4.18;;
45784;SDS011;31489;51.404;5.474;2023-06-26T04:22:26;11.40;;;4.38;;
45784;SDS011;31489;51.404;5.474;2023-06-26T04:24:51;9.35;;;3.78;;
45784;SDS011;31489;51.404;5.474;2023-06-26T04:27:17;9.02;;;4.20;;
45784;SDS011;31489;51.404;5.474;2023-06-26T04:29:43;7.10;;;3.70;;
45784;SDS011;31489;51.404;5.474;2023-06-26T04:32:09;9.75;;;4.78;;
45784;SDS011;31489;51.404;5.474;2023-06-26T04:34:35;11.07;;;3.88;;
45784;SDS011;31489;51.404;5.474;2023-06-26T04:37:06;9.60;;;4.63;;
45784;SDS011;31489;51.404;5.474;2023-06-26T04:39:31;11.45;;;4.45;;
45784;SDS011;31489;51.404;5.474;2023-06-26T04:41:57;9.23;;;3.85;;
45784;SDS011;31489;51.404;5.474;2023-06-26T04:44:23;11.73;;;4.70;;
45784;SDS011;31489;51.404;5.474;2023-06-26T04:46:49;11.43;;;4.60;;
45784;SDS011;31489;51.404;5.474;2023-06-26T04:49:16;10.95;;;4.63;;
45784;SDS011;31489;51.404;5.474;2023-06-26T04:51:42;11.13;;;4.13;;
45784;SDS011;31489;51.404;5.474;2023-06-26T04:54:08;9.30;;;4.10;;
45784;SDS011;31489;51.404;5.474;2023-06-26T04:56:35;11.35;;;4.25;;
45784;SDS011;31489;51.404;5.474;2023-06-26T04:59:01;12.30;;;4.25;;
45784;SDS011;31489;51.404;5.474;2023-06-26T05:01:28;11.40;;;3.97;;
45784;SDS011;31489;51.404;5.474;2023-06-26T05:03:55;13.73;;;4.00;;
45784;SDS011;31489;51.404;5.474;2023-06-26T05:06:21;12.35;;;4.20;;
45784;SDS011;31489;51.404;5.474;2023-06-26T05:08:47;13.07;;;4.10;;
45784;SDS011;31489;51.404;5.474;2023-06-26T05:11:13;12.23;;;4.43;;
45784;SDS011;31489;51.404;5.474;2023-06-26T05:13:38;11.45;;;4.28;;
45784;SDS011;31489;51.404;5.474;2023-06-26T05:16:05;8.45;;;3.78;;
45784;SDS011;31489;51.404;5.474;2023-06-26T05:18:33;9.93;;;3.85;;
45784;SDS011;31489;51.404;5.474;2023-06-26T05:20:58;17.23;;;4.65;;
45784;SDS011;31489;51.404;5.474;2023-06-26T05:23:24;10.57;;;3.85;;
45784;SDS011;31489;51.404;5.474;2023-06-26T05:25:51;11.45;;;3.83;;
45784;SDS011;31489;51.404;5.474;2023-06-26T05:28:17;12.02;;;4.15;;
45784;SDS011;31489;51.404;5.474;2023-06-26T05:30:43;6.53;;;3.03;;
45784;SDS011;31489;51.404;5.474;2023-06-26T05:33:10;9.93;;;3.47;;
45784;SDS011;31489;51.404;5.474;2023-06-26T05:35:37;10.38;;;3.85;;
45784;SDS011;31489;51.404;5.474;2023-06-26T05:38:03;9.80;;;4.03;;
45784;SDS011;31489;51.404;5.474;2023-06-26T05:40:29;11.57;;;3.78;;
45784;SDS011;31489;51.404;5.474;2023-06-26T05:42:55;9.70;;;3.47;;
45784;SDS011;31489;51.404;5.474;2023-06-26T05:45:20;8.80;;;3.85;;
45784;SDS011;31489;51.404;5.474;2023-06-26T05:47:46;11.50;;;3.35;;
45784;SDS011;31489;51.404;5.474;2023-06-26T05:50:13;9.77;;;3.67;;
45784;SDS011;31489;51.404;5.474;2023-06-26T05:52:39;9.25;;;3.47;;
45784;SDS011;31489;51.404;5.474;2023-06-26T05:55:05;12.52;;;3.35;;
45784;SDS011;31489;51.404;5.474;2023-06-26T05:57:31;13.98;;;3.65;;
45784;SDS011;31489;51.404;5.474;2023-06-26T05:59:57;15.98;;;3.42;;
45784;SDS011;31489;51.404;5.474;2023-06-26T06:02:23;14.57;;;2.95;;
45784;SDS011;31489;51.404;5.474;2023-06-26T06:04:48;11.57;;;3.45;;
45784;SDS011;31489;51.404;5.474;2023-06-26T06:07:14;11.20;;;4.28;;
45784;SDS011;31489;51.404;5.474;2023-06-26T06:09:40;12.43;;;3.47;;
45784;SDS011;31489;51.404;5.474;2023-06-26T06:12:06;10.20;;;3.78;;
45784;SDS011;31489;51.404;5.474;2023-06-26T06:14:33;12.75;;;3.55;;
45784;SDS011;31489;51.404;5.474;2023-06-26T06:16:59;14.00;;;3.53;;
45784;SDS011;31489;51.404;5.474;2023-06-26T06:19:25;10.60;;;3.33;;
45784;SDS011;31489;51.404;5.474;2023-06-26T06:21:50;19.48;;;3.72;;
45784;SDS011;31489;51.404;5.474;2023-06-26T06:24:16;8.52;;;3.25;;
45784;SDS011;31489;51.404;5.474;2023-06-26T06:26:42;13.52;;;3.15;;
45784;SDS011;31489;51.404;5.474;2023-06-26T06:29:07;10.13;;;3.47;;
45784;SDS011;31489;51.404;5.474;2023-06-26T06:31:33;7.03;;;2.97;;
45784;SDS011;31489;51.404;5.474;2023-06-26T06:33:58;10.35;;;3.25;;
45784;SDS011;31489;51.404;5.474;2023-06-26T06:36:24;9.07;;;3.22;;
45784;SDS011;31489;51.404;5.474;2023-06-26T06:38:50;10.75;;;3.80;;
45784;SDS011;31489;51.404;5.474;2023-06-26T06:41:15;10.73;;;3.10;;
45784;SDS011;31489;51.404;5.474;2023-06-26T06:43:41;12.43;;;3.20;;
45784;SDS011;31489;51.404;5.474;2023-06-26T06:46:07;8.65;;;3.20;;
45784;SDS011;31489;51.404;5.474;2023-06-26T06:48:33;9.25;;;3.17;;
45784;SDS011;31489;51.404;5.474;2023-06-26T06:50:59;10.85;;;3.22;;
45784;SDS011;31489;51.404;5.474;2023-06-26T06:53:24;4.65;;;2.15;;
45784;SDS011;31489;51.404;5.474;2023-06-26T06:55:50;6.10;;;2.33;;
45784;SDS011;31489;51.404;5.474;2023-06-26T06:58:16;8.07;;;2.78;;
45784;SDS011;31489;51.404;5.474;2023-06-26T07:00:44;4.72;;;2.25;;
45784;SDS011;31489;51.404;5.474;2023-06-26T07:03:09;8.27;;;2.85;;
45784;SDS011;31489;51.404;5.474;2023-06-26T07:05:35;8.85;;;2.40;;
45784;SDS011;31489;51.404;5.474;2023-06-26T07:08:01;10.13;;;2.30;;
45784;SDS011;31489;51.404;5.474;2023-06-26T07:10:28;6.88;;;2.30;;
45784;SDS011;31489;51.404;5.474;2023-06-26T07:12:53;6.63;;;2.17;;
45784;SDS011;31489;51.404;5.474;2023-06-26T07:15:19;5.35;;;2.20;;
45784;SDS011;31489;51.404;5.474;2023-06-26T07:17:45;5.35;;;2.13;;
45784;SDS011;31489;51.404;5.474;2023-06-26T07:20:10;5.07;;;2.40;;
45784;SDS011;31489;51.404;5.474;2023-06-26T07:22:40;4.13;;;1.95;;
45784;SDS011;31489;51.404;5.474;2023-06-26T07:25:06;7.40;;;2.30;;
45784;SDS011;31489;51.404;5.474;2023-06-26T07:27:34;4.10;;;2.08;;
45784;SDS011;31489;51.404;5.474;2023-06-26T07:30:00;6.55;;;2.40;;
45784;SDS011;31489;51.404;5.474;2023-06-26T07:32:26;5.28;;;2.30;;
45784;SDS011;31489;51.404;5.474;2023-06-26T07:34:51;9.10;;;2.35;;
45784;SDS011;31489;51.404;5.474;2023-06-26T07:37:17;7.38;;;1.92;;
45784;SDS011;31489;51.404;5.474;2023-06-26T07:39:43;6.78;;;2.28;;
45784;SDS011;31489;51.404;5.474;2023-06-26T07:42:08;7.43;;;2.50;;
45784;SDS011;31489;51.404;5.474;2023-06-26T07:44:34;7.90;;;2.60;;
45784;SDS011;31489;51.404;5.474;2023-06-26T07:46:59;8.50;;;1.95;;
45784;SDS011;31489;51.404;5.474;2023-06-26T07:49:25;7.20;;;2.00;;
45784;SDS011;31489;51.404;5.474;2023-06-26T07:51:51;3.50;;;1.90;;
45784;SDS011;31489;51.404;5.474;2023-06-26T07:54:16;8.25;;;2.30;;
45784;SDS011;31489;51.404;5.474;2023-06-26T07:57:15;4.47;;;2.10;;
45784;SDS011;31489;51.404;5.474;2023-06-26T07:59:36;4.85;;;2.05;;
45784;SDS011;31489;51.404;5.474;2023-06-26T08:02:02;8.23;;;2.15;;
45784;SDS011;31489;51.404;5.474;2023-06-26T08:04:28;4.07;;;2.20;;
45784;SDS011;31489;51.404;5.474;2023-06-26T08:06:58;4.63;;;1.98;;
45784;SDS011;31489;51.404;5.474;2023-06-26T08:09:25;6.32;;;2.38;;
45784;SDS011;31489;51.404;5.474;2023-06-26T08:11:52;6.15;;;2.15;;
45784;SDS011;31489;51.404;5.474;2023-06-26T08:14:18;4.97;;;2.10;;
45784;SDS011;31489;51.404;5.474;2023-06-26T08:16:44;4.95;;;1.80;;
45784;SDS011;31489;51.404;5.474;2023-06-26T08:19:11;4.32;;;1.88;;
45784;SDS011;31489;51.404;5.474;2023-06-26T08:21:40;5.78;;;2.33;;
45784;SDS011;31489;51.404;5.474;2023-06-26T08:24:06;4.40;;;1.90;;
45784;SDS011;31489;51.404;5.474;2023-06-26T08:26:32;5.20;;;1.65;;
45784;SDS011;31489;51.404;5.474;2023-06-26T08:28:58;2.53;;;1.70;;
45784;SDS011;31489;51.404;5.474;2023-06-26T08:31:24;2.97;;;1.48;;
45784;SDS011;31489;51.404;5.474;2023-06-26T08:33:49;3.20;;;1.38;;
45784;SDS011;31489;51.404;5.474;2023-06-26T08:36:15;6.57;;;1.70;;
45784;SDS011;31489;51.404;5.474;2023-06-26T08:38:41;4.43;;;1.63;;
45784;SDS011;31489;51.404;5.474;2023-06-26T08:41:07;4.72;;;1.10;;
45784;SDS011;31489;51.404;5.474;2023-06-26T08:43:32;4.38;;;1.48;;
45784;SDS011;31489;51.404;5.474;2023-06-26T08:45:59;3.97;;;1.60;;
45784;SDS011;31489;51.404;5.474;2023-06-26T08:48:25;6.63;;;1.58;;
45784;SDS011;31489;51.404;5.474;2023-06-26T08:50:52;2.03;;;1.20;;
45784;SDS011;31489;51.404;5.474;2023-06-26T08:56:19;2.92;;;1.20;;
45784;SDS011;31489;51.404;5.474;2023-06-26T08:58:47;3.58;;;1.35;;
45784;SDS011;31489;51.404;5.474;2023-06-26T09:01:14;5.28;;;1.45;;
45784;SDS011;31489;51.404;5.474;2023-06-26T09:03:40;4.22;;;1.63;;
45784;SDS011;31489;51.404;5.474;2023-06-26T09:06:06;6.75;;;1.40;;
45784;SDS011;31489;51.404;5.474;2023-06-26T09:08:32;4.25;;;1.50;;
45784;SDS011;31489;51.404;5.474;2023-06-26T09:10:58;3.20;;;1.38;;
45784;SDS011;31489;51.404;5.474;2023-06-26T09:13:23;5.32;;;1.30;;
45784;SDS011;31489;51.404;5.474;2023-06-26T09:15:49;2.60;;;1.40;;
45784;SDS011;31489;51.404;5.474;2023-06-26T09:18:18;3.35;;;1.30;;
45784;SDS011;31489;51.404;5.474;2023-06-26T09:20:46;3.72;;;1.40;;
45784;SDS011;31489;51.404;5.474;2023-06-26T09:23:12;3.08;;;1.25;;
45784;SDS011;31489;51.404;5.474;2023-06-26T09:25:41;4.75;;;1.35;;
45784;SDS011;31489;51.404;5.474;2023-06-26T09:28:08;5.55;;;1.15;;
45784;SDS011;31489;51.404;5.474;2023-06-26T09:30:33;2.30;;;1.17;;
45784;SDS011;31489;51.404;5.474;2023-06-26T09:33:16;3.53;;;1.48;;
45784;SDS011;31489;51.404;5.474;2023-06-26T09:35:43;7.75;;;1.50;;
45784;SDS011;31489;51.404;5.474;2023-06-26T09:38:09;3.60;;;0.98;;
45784;SDS011;31489;51.404;5.474;2023-06-26T09:40:36;3.05;;;1.27;;
45784;SDS011;31489;51.404;5.474;2023-06-26T09:43:06;4.75;;;1.17;;
45784;SDS011;31489;51.404;5.474;2023-06-26T09:45:33;3.53;;;1.48;;
45784;SDS011;31489;51.404;5.474;2023-06-26T09:48:01;5.10;;;1.15;;
45784;SDS011;31489;51.404;5.474;2023-06-26T09:50:32;3.70;;;0.93;;
45784;SDS011;31489;51.404;5.474;2023-06-26T09:53:09;2.15;;;1.00;;
45784;SDS011;31489;51.404;5.474;2023-06-26T09:58:05;2.97;;;1.48;;
45784;SDS011;31489;51.404;5.474;2023-06-26T10:00:31;2.75;;;1.17;;
45784;SDS011;31489;51.404;5.474;2023-06-26T10:03:00;3.60;;;1.05;;
45784;SDS011;31489;51.404;5.474;2023-06-26T10:05:26;4.07;;;1.20;;
45784;SDS011;31489;51.404;5.474;2023-06-26T10:07:52;2.22;;;1.02;;
45784;SDS011;31489;51.404;5.474;2023-06-26T10:10:19;2.05;;;1.10;;
45784;SDS011;31489;51.404;5.474;2023-06-26T10:12:47;3.35;;;1.42;;
45784;SDS011;31489;51.404;5.474;2023-06-26T10:15:15;3.30;;;1.33;;
45784;SDS011;31489;51.404;5.474;2023-06-26T10:17:42;2.17;;;1.20;;
45784;SDS011;31489;51.404;5.474;2023-06-26T10:20:08;2.97;;;1.20;;
45784;SDS011;31489;51.404;5.474;2023-06-26T10:22:53;5.20;;;1.10;;
45784;SDS011;31489;51.404;5.474;2023-06-26T10:25:22;2.47;;;1.10;;
45784;SDS011;31489;51.404;5.474;2023-06-26T10:27:54;2.83;;;0.80;;
45784;SDS011;31489;51.404;5.474;2023-06-26T10:30:23;1.65;;;1.10;;
45784;SDS011;31489;51.404;5.474;2023-06-26T10:32:53;1.55;;;0.98;;
45784;SDS011;31489;51.404;5.474;2023-06-26T10:35:19;1.88;;;1.25;;
45784;SDS011;31489;51.404;5.474;2023-06-26T10:37:49;1.90;;;0.90;;
45784;SDS011;31489;51.404;5.474;2023-06-26T10:40:25;5.07;;;1.23;;
45784;SDS011;31489;51.404;5.474;2023-06-26T10:43:05;2.40;;;0.90;;
45784;SDS011;31489;51.404;5.474;2023-06-26T10:45:33;2.38;;;1.30;;
45784;SDS011;31489;51.404;5.474;2023-06-26T10:48:00;2.53;;;0.90;;
45784;SDS011;31489;51.404;5.474;2023-06-26T10:50:28;3.97;;;1.17;;
45784;SDS011;31489;51.404;5.474;2023-06-26T10:55:34;3.97;;;1.20;;
45784;SDS011;31489;51.404;5.474;2023-06-26T10:58:00;2.58;;;1.02;;
45784;SDS011;31489;51.404;5.474;2023-06-26T11:00:29;1.42;;;1.10;;
45784;SDS011;31489;51.404;5.474;2023-06-26T11:02:55;4.57;;;1.30;;
45784;SDS011;31489;51.404;5.474;2023-06-26T11:05:25;2.17;;;1.20;;
45784;SDS011;31489;51.404;5.474;2023-06-26T11:08:08;4.57;;;1.20;;
45784;SDS011;31489;51.404;5.474;2023-06-26T11:10:54;1.98;;;1.13;;
45784;SDS011;31489;51.404;5.474;2023-06-26T11:13:25;1.58;;;1.17;;
45784;SDS011;31489;51.404;5.474;2023-06-26T11:15:51;4.03;;;1.00;;
45784;SDS011;31489;51.404;5.474;2023-06-26T11:18:17;1.50;;;0.90;;
45784;SDS011;31489;51.404;5.474;2023-06-26T11:20:43;1.60;;;0.82;;
45784;SDS011;31489;51.404;5.474;2023-06-26T11:23:09;1.90;;;1.20;;
45784;SDS011;31489;51.404;5.474;2023-06-26T11:25:35;1.58;;;1.02;;
45784;SDS011;31489;51.404;5.474;2023-06-26T11:28:04;2.42;;;1.40;;
45784;SDS011;31489;51.404;5.474;2023-06-26T11:30:31;3.53;;;1.30;;
45784;SDS011;31489;51.404;5.474;2023-06-26T11:33:07;4.25;;;1.30;;
45784;SDS011;31489;51.404;5.474;2023-06-26T11:38:38;3.25;;;1.38;;
45784;SDS011;31489;51.404;5.474;2023-06-26T11:41:04;3.90;;;1.00;;
45784;SDS011;31489;51.404;5.474;2023-06-26T11:43:33;1.73;;;1.20;;
45784;SDS011;31489;51.404;5.474;2023-06-26T11:45:59;2.58;;;1.17;;
45784;SDS011;31489;51.404;5.474;2023-06-26T11:48:25;2.58;;;1.13;;
45784;SDS011;31489;51.404;5.474;2023-06-26T11:50:51;2.72;;;1.40;;
45784;SDS011;31489;51.404;5.474;2023-06-26T11:53:16;3.45;;;1.42;;
45784;SDS011;31489;51.404;5.474;2023-06-26T11:55:42;2.17;;;1.10;;
45784;SDS011;31489;51.404;5.474;2023-06-26T11:58:08;2.78;;;1.50;;
45784;SDS011;31489;51.404;5.474;2023-06-26T12:00:33;6.28;;;1.40;;
45784;SDS011;31489;51.404;5.474;2023-06-26T12:02:59;2.83;;;1.13;;
45784;SDS011;31489;51.404;5.474;2023-06-26T12:05:26;2.42;;;1.33;;
45784;SDS011;31489;51.404;5.474;2023-06-26T12:07:51;4.28;;;1.25;;
45784;SDS011;31489;51.404;5.474;2023-06-26T12:10:17;4.07;;;1.40;;
45784;SDS011;31489;51.404;5.474;2023-06-26T12:12:44;2.30;;;1.30;;
45784;SDS011;31489;51.404;5.474;2023-06-26T12:15:14;3.22;;;1.30;;
45784;SDS011;31489;51.404;5.474;2023-06-26T12:17:40;3.40;;;1.20;;
45784;SDS011;31489;51.404;5.474;2023-06-26T12:20:17;4.88;;;1.35;;
45784;SDS011;31489;51.404;5.474;2023-06-26T12:22:47;3.72;;;1.55;;
45784;SDS011;31489;51.404;5.474;2023-06-26T12:25:13;1.42;;;0.95;;
45784;SDS011;31489;51.404;5.474;2023-06-26T12:27:39;4.68;;;1.55;;
45784;SDS011;31489;51.404;5.474;2023-06-26T12:30:05;3.63;;;1.20;;
45784;SDS011;31489;51.404;5.474;2023-06-26T12:32:31;2.35;;;1.20;;
45784;SDS011;31489;51.404;5.474;2023-06-26T12:34:57;3.55;;;1.33;;
45784;SDS011;31489;51.404;5.474;2023-06-26T12:37:23;3.42;;;1.27;;
45784;SDS011;31489;51.404;5.474;2023-06-26T12:39:56;2.67;;;1.20;;
45784;SDS011;31489;51.404;5.474;2023-06-26T12:42:26;3.35;;;1.05;;
45784;SDS011;31489;51.404;5.474;2023-06-26T12:44:53;3.38;;;0.98;;
45784;SDS011;31489;51.404;5.474;2023-06-26T12:47:26;2.55;;;1.10;;
45784;SDS011;31489;51.404;5.474;2023-06-26T12:49:55;4.43;;;1.02;;
45784;SDS011;31489;51.404;5.474;2023-06-26T12:52:22;2.08;;;1.05;;
45784;SDS011;31489;51.404;5.474;2023-06-26T12:54:51;2.15;;;1.15;;
45784;SDS011;31489;51.404;5.474;2023-06-26T12:57:19;2.05;;;1.10;;
45784;SDS011;31489;51.404;5.474;2023-06-26T12:59:44;2.08;;;1.08;;
45784;SDS011;31489;51.404;5.474;2023-06-26T13:02:10;6.40;;;1.30;;
45784;SDS011;31489;51.404;5.474;2023-06-26T13:04:36;5.38;;;1.05;;
45784;SDS011;31489;51.404;5.474;2023-06-26T13:07:05;3.05;;;0.93;;
45784;SDS011;31489;51.404;5.474;2023-06-26T13:09:34;2.55;;;1.00;;
45784;SDS011;31489;51.404;5.474;2023-06-26T13:12:00;2.08;;;1.20;;
45784;SDS011;31489;51.404;5.474;2023-06-26T13:14:27;5.55;;;1.10;;
45784;SDS011;31489;51.404;5.474;2023-06-26T13:16:52;2.53;;;1.08;;
45784;SDS011;31489;51.404;5.474;2023-06-26T13:19:18;1.55;;;0.93;;
45784;SDS011;31489;51.404;5.474;2023-06-26T13:21:44;1.13;;;0.90;;
45784;SDS011;31489;51.404;5.474;2023-06-26T13:24:10;2.08;;;1.08;;
45784;SDS011;31489;51.404;5.474;2023-06-26T13:26:35;1.58;;;1.00;;
45784;SDS011;31489;51.404;5.474;2023-06-26T13:29:01;2.28;;;0.95;;
45784;SDS011;31489;51.404;5.474;2023-06-26T13:31:28;3.72;;;1.00;;
45784;SDS011;31489;51.404;5.474;2023-06-26T13:33:56;2.58;;;1.00;;
45784;SDS011;31489;51.404;5.474;2023-06-26T13:36:28;1.30;;;0.80;;
45784;SDS011;31489;51.404;5.474;2023-06-26T13:38:54;1.92;;;1.10;;
45784;SDS011;31489;51.404;5.474;2023-06-26T13:41:22;3.80;;;0.90;;
45784;SDS011;31489;51.404;5.474;2023-06-26T13:43:48;4.32;;;1.10;;
45784;SDS011;31489;51.404;5.474;2023-06-26T13:46:14;2.70;;;0.80;;
45784;SDS011;31489;51.404;5.474;2023-06-26T13:48:40;1.88;;;0.88;;
45784;SDS011;31489;51.404;5.474;2023-06-26T13:51:06;2.58;;;0.90;;
45784;SDS011;31489;51.404;5.474;2023-06-26T13:53:32;3.42;;;1.00;;
45784;SDS011;31489;51.404;5.474;2023-06-26T13:55:57;2.08;;;1.10;;
45784;SDS011;31489;51.404;5.474;2023-06-26T13:58:23;2.10;;;1.10;;
45784;SDS011;31489;51.404;5.474;2023-06-26T14:00:51;1.88;;;1.00;;
45784;SDS011;31489;51.404;5.474;2023-06-26T14:03:18;8.63;;;1.10;;
45784;SDS011;31489;51.404;5.474;2023-06-26T14:05:43;4.15;;;1.23;;
45784;SDS011;31489;51.404;5.474;2023-06-26T14:08:09;1.65;;;0.88;;
45784;SDS011;31489;51.404;5.474;2023-06-26T14:10:35;5.53;;;1.20;;
45784;SDS011;31489;51.404;5.474;2023-06-26T14:13:01;2.42;;;1.08;;
45784;SDS011;31489;51.404;5.474;2023-06-26T14:15:28;3.28;;;0.90;;
45784;SDS011;31489;51.404;5.474;2023-06-26T14:17:54;1.98;;;0.90;;
45784;SDS011;31489;51.404;5.474;2023-06-26T14:20:21;4.55;;;1.00;;
45784;SDS011;31489;51.404;5.474;2023-06-26T14:22:47;2.10;;;1.00;;
45784;SDS011;31489;51.404;5.474;2023-06-26T14:25:14;4.88;;;1.15;;
45784;SDS011;31489;51.404;5.474;2023-06-26T14:27:42;1.13;;;0.90;;
45784;SDS011;31489;51.404;5.474;2023-06-26T14:30:07;2.65;;;0.85;;
45784;SDS011;31489;51.404;5.474;2023-06-26T14:32:34;1.00;;;0.90;;
45784;SDS011;31489;51.404;5.474;2023-06-26T14:35:00;1.95;;;0.90;;
45784;SDS011;31489;51.404;5.474;2023-06-26T14:37:26;2.13;;;1.10;;
45784;SDS011;31489;51.404;5.474;2023-06-26T14:39:53;2.72;;;1.10;;
45784;SDS011;31489;51.404;5.474;2023-06-26T14:42:19;3.97;;;0.95;;
45784;SDS011;31489;51.404;5.474;2023-06-26T14:44:45;3.90;;;1.30;;
45784;SDS011;31489;51.404;5.474;2023-06-26T14:47:13;2.63;;;1.27;;
45784;SDS011;31489;51.404;5.474;2023-06-26T14:49:39;1.48;;;0.93;;
45784;SDS011;31489;51.404;5.474;2023-06-26T14:52:05;2.60;;;1.10;;
45784;SDS011;31489;51.404;5.474;2023-06-26T14:54:31;2.47;;;1.20;;
45784;SDS011;31489;51.404;5.474;2023-06-26T14:56:57;3.08;;;1.33;;